sensor_id;sensor_type;location;lat;lon;timestamp;pressure;altitude;pressure_sealevel;temperature;humidity
40954;BME280;26686;50.130;8.710;2023-01-28T00:02:54;101008.69;;;3.68;75.92
40954;BME280;26686;50.130;8.710;2023-01-28T00:07:55;101003.66;;;3.62;75.83
40954;BME280;26686;50.130;8.710;2023-01-28T00:12:58;101010.69;;;3.62;76.04
40954;BME280;26686;50.130;8.710;2023-01-28T00:17:59;101000.84;;;3.67;75.71
40954;BME280;26686;50.130;8.710;2023-01-28T00:23:01;101005.47;;;3.60;76.24
40954;BME280;26686;50.130;8.710;2023-01-28T00:28:02;100991.66;;;3.55;76.03
40954;BME280;26686;50.130;8.710;2023-01-28T00:33:03;100994.94;;;3.60;76.00
40954;BME280;26686;50.130;8.710;2023-01-28T00:38:05;101001.22;;;3.58;76.06
40954;BME280;26686;50.130;8.710;2023-01-28T00:43:06;101006.72;;;3.51;76.15
40954;BME280;26686;50.130;8.710;2023-01-28T00:48:08;100998.91;;;3.50;76.08
40954;BME280;26686;50.130;8.710;2023-01-28T00:53:09;101010.22;;;3.52;76.08
40954;BME280;26686;50.130;8.710;2023-01-28T00:58:11;101005.84;;;3.51;75.80
40954;BME280;26686;50.130;8.710;2023-01-28T01:03:12;101009.31;;;3.53;75.52
40954;BME280;26686;50.130;8.710;2023-01-28T01:08:14;101021.41;;;3.57;75.59
40954;BME280;26686;50.130;8.710;2023-01-28T01:13:15;101022.22;;;3.59;75.58
40954;BME280;26686;50.130;8.710;2023-01-28T01:18:16;101007.41;;;3.57;75.13
40954;BME280;26686;50.130;8.710;2023-01-28T01:23:18;100987.59;;;3.46;75.19
40954;BME280;26686;50.130;8.710;2023-01-28T01:28:21;101033.00;;;3.75;74.68
40954;BME280;26686;50.130;8.710;2023-01-28T01:33:22;101033.06;;;3.74;74.74
40954;BME280;26686;50.130;8.710;2023-01-28T01:38:24;101040.94;;;3.74;74.91
40954;BME280;26686;50.130;8.710;2023-01-28T01:43:55;101048.25;;;3.67;74.79
40954;BME280;26686;50.130;8.710;2023-01-28T01:49:05;101039.25;;;3.72;74.85
40954;BME280;26686;50.130;8.710;2023-01-28T01:54:07;101045.38;;;3.73;74.72
40954;BME280;26686;50.130;8.710;2023-01-28T01:59:12;101048.13;;;3.70;74.74
40954;BME280;26686;50.130;8.710;2023-01-28T02:04:22;101058.66;;;3.70;74.99
40954;BME280;26686;50.130;8.710;2023-01-28T02:09:30;101058.72;;;3.68;75.29
40954;BME280;26686;50.130;8.710;2023-01-28T02:14:34;101057.28;;;3.60;76.14
40954;BME280;26686;50.130;8.710;2023-01-28T02:19:47;101052.50;;;3.71;75.67
40954;BME280;26686;50.130;8.710;2023-01-28T02:30:20;101050.19;;;3.62;76.28
40954;BME280;26686;50.130;8.710;2023-01-28T02:36:03;101049.47;;;3.58;76.83
40954;BME280;26686;50.130;8.710;2023-01-28T02:41:01;101056.44;;;3.59;76.98
40954;BME280;26686;50.130;8.710;2023-01-28T03:02:45;101065.97;;;3.62;77.40
40954;BME280;26686;50.130;8.710;2023-01-28T03:07:51;101059.75;;;3.64;77.44
40954;BME280;26686;50.130;8.710;2023-01-28T03:12:55;101067.47;;;3.69;77.46
40954;BME280;26686;50.130;8.710;2023-01-28T03:18:24;101078.13;;;3.66;77.60
40954;BME280;26686;50.130;8.710;2023-01-28T03:23:59;101088.78;;;3.63;77.63
40954;BME280;26686;50.130;8.710;2023-01-28T03:29:22;101090.25;;;3.70;77.35
40954;BME280;26686;50.130;8.710;2023-01-28T03:34:43;101090.13;;;3.73;77.46
40954;BME280;26686;50.130;8.710;2023-01-28T03:40:06;101069.69;;;3.58;77.16
40954;BME280;26686;50.130;8.710;2023-01-28T03:45:08;101089.28;;;3.72;76.51
40954;BME280;26686;50.130;8.710;2023-01-28T03:50:09;101097.31;;;3.69;76.42
40954;BME280;26686;50.130;8.710;2023-01-28T03:55:11;101097.38;;;3.68;76.12
40954;BME280;26686;50.130;8.710;2023-01-28T04:00:16;101099.13;;;3.67;76.00
40954;BME280;26686;50.130;8.710;2023-01-28T04:05:18;101104.09;;;3.75;75.66
40954;BME280;26686;50.130;8.710;2023-01-28T04:10:20;101101.63;;;3.70;75.39
40954;BME280;26686;50.130;8.710;2023-01-28T04:15:22;101097.13;;;3.74;75.45
40954;BME280;26686;50.130;8.710;2023-01-28T04:20:24;101108.34;;;3.79;75.06
40954;BME280;26686;50.130;8.710;2023-01-28T04:25:25;101112.34;;;3.66;75.28
40954;BME280;26686;50.130;8.710;2023-01-28T04:30:27;101111.09;;;3.76;74.68
40954;BME280;26686;50.130;8.710;2023-01-28T04:35:28;101109.25;;;3.78;73.81
40954;BME280;26686;50.130;8.710;2023-01-28T04:40:29;101115.50;;;3.76;73.98
40954;BME280;26686;50.130;8.710;2023-01-28T04:45:31;101114.56;;;3.77;73.47
40954;BME280;26686;50.130;8.710;2023-01-28T04:50:32;101105.81;;;3.76;74.00
40954;BME280;26686;50.130;8.710;2023-01-28T04:55:34;101103.44;;;3.70;73.14
40954;BME280;26686;50.130;8.710;2023-01-28T05:00:35;101113.28;;;3.65;73.64
40954;BME280;26686;50.130;8.710;2023-01-28T05:05:37;101105.34;;;3.66;73.54
40954;BME280;26686;50.130;8.710;2023-01-28T05:10:38;101112.28;;;3.67;73.40
40954;BME280;26686;50.130;8.710;2023-01-28T05:15:40;101120.00;;;3.72;72.94
40954;BME280;26686;50.130;8.710;2023-01-28T05:20:42;101116.47;;;3.73;72.63
40954;BME280;26686;50.130;8.710;2023-01-28T05:25:43;101128.03;;;3.69;72.37
40954;BME280;26686;50.130;8.710;2023-01-28T05:30:46;101135.94;;;3.69;72.46
40954;BME280;26686;50.130;8.710;2023-01-28T05:35:47;101135.94;;;3.69;72.26
40954;BME280;26686;50.130;8.710;2023-01-28T05:40:49;101143.94;;;3.66;72.27
40954;BME280;26686;50.130;8.710;2023-01-28T05:45:51;101138.56;;;3.69;71.92
40954;BME280;26686;50.130;8.710;2023-01-28T05:50:52;101156.50;;;3.59;72.49
40954;BME280;26686;50.130;8.710;2023-01-28T05:55:54;101151.34;;;3.56;72.27
40954;BME280;26686;50.130;8.710;2023-01-28T06:00:55;101156.06;;;3.46;72.48
40954;BME280;26686;50.130;8.710;2023-01-28T06:05:57;101170.25;;;3.42;72.11
40954;BME280;26686;50.130;8.710;2023-01-28T06:10:58;101158.13;;;3.38;72.34
40954;BME280;26686;50.130;8.710;2023-01-28T06:16:00;101161.56;;;3.40;72.00
40954;BME280;26686;50.130;8.710;2023-01-28T06:21:02;101173.38;;;3.53;71.39
40954;BME280;26686;50.130;8.710;2023-01-28T06:26:03;101178.53;;;3.57;71.36
40954;BME280;26686;50.130;8.710;2023-01-28T06:31:05;101175.22;;;3.51;71.66
40954;BME280;26686;50.130;8.710;2023-01-28T06:36:07;101186.25;;;3.61;71.38
40954;BME280;26686;50.130;8.710;2023-01-28T06:41:11;101190.66;;;3.61;70.93
40954;BME280;26686;50.130;8.710;2023-01-28T06:46:12;101195.06;;;3.60;70.62
40954;BME280;26686;50.130;8.710;2023-01-28T06:51:14;101204.50;;;3.66;70.22
40954;BME280;26686;50.130;8.710;2023-01-28T06:56:17;101201.19;;;3.61;70.41
40954;BME280;26686;50.130;8.710;2023-01-28T07:01:18;101202.91;;;3.62;70.40
40954;BME280;26686;50.130;8.710;2023-01-28T07:06:19;101200.44;;;3.57;69.91
40954;BME280;26686;50.130;8.710;2023-01-28T07:11:21;101199.47;;;3.60;69.81
40954;BME280;26686;50.130;8.710;2023-01-28T07:16:22;101214.03;;;3.70;70.29
40954;BME280;26686;50.130;8.710;2023-01-28T07:21:24;101222.16;;;3.64;69.75
40954;BME280;26686;50.130;8.710;2023-01-28T07:26:25;101214.03;;;3.70;69.95
40954;BME280;26686;50.130;8.710;2023-01-28T07:31:27;101233.09;;;3.77;69.29
40954;BME280;26686;50.130;8.710;2023-01-28T07:36:28;101221.69;;;3.76;69.02
40954;BME280;26686;50.130;8.710;2023-01-28T07:41:30;101230.72;;;3.69;68.73
40954;BME280;26686;50.130;8.710;2023-01-28T07:46:31;101228.91;;;3.71;68.95
40954;BME280;26686;50.130;8.710;2023-01-28T07:51:33;101236.59;;;3.77;68.60
40954;BME280;26686;50.130;8.710;2023-01-28T07:56:34;101237.50;;;3.76;68.44
40954;BME280;26686;50.130;8.710;2023-01-28T08:01:36;101247.31;;;3.72;68.60
40954;BME280;26686;50.130;8.710;2023-01-28T08:06:37;101246.19;;;3.78;68.65
40954;BME280;26686;50.130;8.710;2023-01-28T08:11:39;101246.09;;;3.81;68.66
40954;BME280;26686;50.130;8.710;2023-01-28T08:16:40;101261.81;;;3.84;68.03
40954;BME280;26686;50.130;8.710;2023-01-28T08:21:42;101261.75;;;3.86;68.29
40954;BME280;26686;50.130;8.710;2023-01-28T08:26:47;101262.59;;;3.86;68.31
40954;BME280;26686;50.130;8.710;2023-01-28T08:31:48;101256.41;;;3.87;67.99
40954;BME280;26686;50.130;8.710;2023-01-28T08:36:50;101273.69;;;3.95;67.54
40954;BME280;26686;50.130;8.710;2023-01-28T08:41:51;101257.31;;;3.86;67.43
40954;BME280;26686;50.130;8.710;2023-01-28T08:46:53;101277.59;;;3.84;67.60
40954;BME280;26686;50.130;8.710;2023-01-28T08:51:54;101274.81;;;3.89;66.79
40954;BME280;26686;50.130;8.710;2023-01-28T08:56:56;101278.97;;;3.95;66.27
40954;BME280;26686;50.130;8.710;2023-01-28T09:01:57;101288.47;;;3.99;66.36
40954;BME280;26686;50.130;8.710;2023-01-28T09:06:59;101291.00;;;4.02;66.02
40954;BME280;26686;50.130;8.710;2023-01-28T09:12:02;101284.13;;;3.98;65.96
40954;BME280;26686;50.130;8.710;2023-01-28T09:17:04;101296.28;;;4.02;66.02
40954;BME280;26686;50.130;8.710;2023-01-28T09:22:05;101299.84;;;4.01;66.37
40954;BME280;26686;50.130;8.710;2023-01-28T09:27:07;101299.63;;;4.07;66.34
40954;BME280;26686;50.130;8.710;2023-01-28T09:32:08;101307.41;;;4.10;65.64
40954;BME280;26686;50.130;8.710;2023-01-28T09:37:10;101312.91;;;4.04;65.73
40954;BME280;26686;50.130;8.710;2023-01-28T09:47:39;101309.69;;;3.96;65.98
40954;BME280;26686;50.130;8.710;2023-01-28T09:52:41;101324.19;;;4.07;66.47
40954;BME280;26686;50.130;8.710;2023-01-28T09:57:53;101309.28;;;4.06;65.55
40954;BME280;26686;50.130;8.710;2023-01-28T10:14:05;101339.03;;;4.10;66.37
40954;BME280;26686;50.130;8.710;2023-01-28T10:19:15;101329.41;;;4.09;65.58
40954;BME280;26686;50.130;8.710;2023-01-28T10:25:23;101337.78;;;4.20;65.28
40954;BME280;26686;50.130;8.710;2023-01-28T10:29:51;101343.84;;;4.22;65.23
40954;BME280;26686;50.130;8.710;2023-01-28T10:34:53;101341.66;;;4.10;65.35
40954;BME280;26686;50.130;8.710;2023-01-28T10:39:56;101344.19;;;4.13;65.57
40954;BME280;26686;50.130;8.710;2023-01-28T10:45:13;101344.97;;;4.15;64.24
40954;BME280;26686;50.130;8.710;2023-01-28T10:50:25;101344.75;;;4.21;64.32
40954;BME280;26686;50.130;8.710;2023-01-28T10:55:29;101337.69;;;4.23;63.50
40954;BME280;26686;50.130;8.710;2023-01-28T11:00:35;101342.78;;;4.28;63.11
40954;BME280;26686;50.130;8.710;2023-01-28T11:05:37;101326.31;;;4.21;62.30
40954;BME280;26686;50.130;8.710;2023-01-28T11:10:39;101333.88;;;4.31;62.35
40954;BME280;26686;50.130;8.710;2023-01-28T11:15:46;101337.34;;;4.33;62.23
40954;BME280;26686;50.130;8.710;2023-01-28T11:20:51;101344.31;;;4.34;61.68
40954;BME280;26686;50.130;8.710;2023-01-28T11:25:59;101334.69;;;4.33;61.32
40954;BME280;26686;50.130;8.710;2023-01-28T11:31:03;101339.69;;;4.40;61.33
40954;BME280;26686;50.130;8.710;2023-01-28T11:36:06;101345.78;;;4.41;61.48
40954;BME280;26686;50.130;8.710;2023-01-28T11:41:13;101335.19;;;4.42;61.79
40954;BME280;26686;50.130;8.710;2023-01-28T11:57:15;101320.31;;;4.41;59.98
40954;BME280;26686;50.130;8.710;2023-01-28T12:08:11;101311.63;;;4.38;58.94
40954;BME280;26686;50.130;8.710;2023-01-28T12:19:13;101307.84;;;4.21;59.19
40954;BME280;26686;50.130;8.710;2023-01-28T12:30:10;101319.22;;;4.23;59.31
40954;BME280;26686;50.130;8.710;2023-01-28T12:35:42;101318.28;;;4.24;58.17
40954;BME280;26686;50.130;8.710;2023-01-28T12:46:01;101297.91;;;4.30;57.80
40954;BME280;26686;50.130;8.710;2023-01-28T12:51:10;101301.56;;;4.25;56.81
40954;BME280;26686;50.130;8.710;2023-01-28T12:56:17;101296.97;;;4.31;56.67
40954;BME280;26686;50.130;8.710;2023-01-28T13:01:27;101300.97;;;4.41;55.81
40954;BME280;26686;50.130;8.710;2023-01-28T13:06:38;101291.38;;;4.40;55.75
40954;BME280;26686;50.130;8.710;2023-01-28T13:11:42;101285.88;;;4.22;55.78
40954;BME280;26686;50.130;8.710;2023-01-28T13:16:43;101306.91;;;4.24;56.77
40954;BME280;26686;50.130;8.710;2023-01-28T13:21:46;101305.81;;;4.30;56.72
40954;BME280;26686;50.130;8.710;2023-01-28T13:27:10;101317.94;;;4.34;55.89
40954;BME280;26686;50.130;8.710;2023-01-28T13:32:33;101302.66;;;4.20;55.12
40954;BME280;26686;50.130;8.710;2023-01-28T13:37:38;101332.59;;;3.94;55.51
40954;BME280;26686;50.130;8.710;2023-01-28T13:42:43;101331.13;;;4.10;55.49
40954;BME280;26686;50.130;8.710;2023-01-28T13:47:49;101298.13;;;4.00;54.89
40954;BME280;26686;50.130;8.710;2023-01-28T13:53:16;101293.19;;;3.91;55.51
40954;BME280;26686;50.130;8.710;2023-01-28T13:58:40;101328.72;;;4.28;55.27
40954;BME280;26686;50.130;8.710;2023-01-28T14:04:01;101348.38;;;4.19;53.61
40954;BME280;26686;50.130;8.710;2023-01-28T14:10:11;101329.78;;;4.23;53.62
40954;BME280;26686;50.130;8.710;2023-01-28T14:20:25;101331.19;;;4.32;53.58
40954;BME280;26686;50.130;8.710;2023-01-28T14:25:48;101346.38;;;4.25;53.70
40954;BME280;26686;50.130;8.710;2023-01-28T14:31:10;101333.88;;;4.31;53.39
40954;BME280;26686;50.130;8.710;2023-01-28T14:36:14;101344.25;;;4.35;53.49
40954;BME280;26686;50.130;8.710;2023-01-28T14:41:23;101349.19;;;3.96;54.19
40954;BME280;26686;50.130;8.710;2023-01-28T14:46:39;101348.63;;;4.11;53.96
40954;BME280;26686;50.130;8.710;2023-01-28T15:02:19;101331.34;;;4.04;53.74
40954;BME280;26686;50.130;8.710;2023-01-28T15:07:23;101324.53;;;3.98;52.69
40954;BME280;26686;50.130;8.710;2023-01-28T15:12:25;101328.50;;;4.10;53.21
40954;BME280;26686;50.130;8.710;2023-01-28T15:17:27;101327.78;;;4.05;53.09
40954;BME280;26686;50.130;8.710;2023-01-28T15:22:28;101328.00;;;3.99;53.61
40954;BME280;26686;50.130;8.710;2023-01-28T15:27:30;101295.59;;;3.97;53.24
40954;BME280;26686;50.130;8.710;2023-01-28T15:32:32;101313.59;;;4.09;53.10
40954;BME280;26686;50.130;8.710;2023-01-28T15:37:34;101308.78;;;3.97;53.45
40954;BME280;26686;50.130;8.710;2023-01-28T15:42:35;101314.16;;;3.94;53.09
40954;BME280;26686;50.130;8.710;2023-01-28T15:47:38;101319.31;;;3.97;53.77
40954;BME280;26686;50.130;8.710;2023-01-28T15:52:40;101319.41;;;3.94;53.47
40954;BME280;26686;50.130;8.710;2023-01-28T15:57:45;101329.84;;;3.97;53.16
40954;BME280;26686;50.130;8.710;2023-01-28T16:02:51;101319.66;;;3.87;53.47
40954;BME280;26686;50.130;8.710;2023-01-28T16:07:54;101328.56;;;3.83;53.67
40954;BME280;26686;50.130;8.710;2023-01-28T16:13:03;101340.09;;;3.79;53.79
40954;BME280;26686;50.130;8.710;2023-01-28T16:18:06;101336.91;;;3.71;53.89
40954;BME280;26686;50.130;8.710;2023-01-28T16:23:20;101348.22;;;3.73;53.58
40954;BME280;26686;50.130;8.710;2023-01-28T16:28:22;101335.22;;;3.68;53.77
40954;BME280;26686;50.130;8.710;2023-01-28T16:33:24;101369.97;;;3.78;53.55
40954;BME280;26686;50.130;8.710;2023-01-28T16:38:26;101360.38;;;3.77;54.16
40954;BME280;26686;50.130;8.710;2023-01-28T16:43:28;101361.38;;;3.73;53.72
40954;BME280;26686;50.130;8.710;2023-01-28T16:48:29;101341.41;;;3.41;53.66
40954;BME280;26686;50.130;8.710;2023-01-28T16:53:32;101355.81;;;3.56;54.08
40954;BME280;26686;50.130;8.710;2023-01-28T16:58:34;101362.81;;;3.57;54.77
40954;BME280;26686;50.130;8.710;2023-01-28T17:03:35;101369.81;;;3.58;54.59
40954;BME280;26686;50.130;8.710;2023-01-28T17:08:36;101368.78;;;3.62;54.39
40954;BME280;26686;50.130;8.710;2023-01-28T17:13:39;101374.25;;;3.56;53.99
40954;BME280;26686;50.130;8.710;2023-01-28T17:18:40;101387.31;;;3.59;54.29
40954;BME280;26686;50.130;8.710;2023-01-28T17:23:42;101401.31;;;3.61;54.26
40954;BME280;26686;50.130;8.710;2023-01-28T17:28:44;101400.59;;;3.56;54.61
40954;BME280;26686;50.130;8.710;2023-01-28T17:33:45;101403.31;;;3.52;54.64
40954;BME280;26686;50.130;8.710;2023-01-28T17:38:47;101399.00;;;3.51;55.22
40954;BME280;26686;50.130;8.710;2023-01-28T17:43:50;101382.88;;;3.34;53.79
40954;BME280;26686;50.130;8.710;2023-01-28T17:48:52;101390.00;;;3.30;54.88
40954;BME280;26686;50.130;8.710;2023-01-28T17:53:53;101421.44;;;3.35;54.58
40954;BME280;26686;50.130;8.710;2023-01-28T17:59:00;101426.50;;;3.41;54.41
40954;BME280;26686;50.130;8.710;2023-01-28T18:04:06;101438.78;;;3.41;54.68
40954;BME280;26686;50.130;8.710;2023-01-28T18:09:08;101427.94;;;3.51;54.98
40954;BME280;26686;50.130;8.710;2023-01-28T18:14:10;101429.75;;;3.49;54.59
40954;BME280;26686;50.130;8.710;2023-01-28T18:19:12;101430.59;;;3.51;54.81
40954;BME280;26686;50.130;8.710;2023-01-28T18:24:13;101442.00;;;3.50;54.61
40954;BME280;26686;50.130;8.710;2023-01-28T18:29:15;101458.75;;;3.48;55.30
40954;BME280;26686;50.130;8.710;2023-01-28T18:34:25;101471.25;;;3.41;55.12
40954;BME280;26686;50.130;8.710;2023-01-28T18:39:27;101477.25;;;3.46;55.76
40954;BME280;26686;50.130;8.710;2023-01-28T18:44:31;101476.53;;;3.41;56.21
40954;BME280;26686;50.130;8.710;2023-01-28T18:49:33;101454.13;;;3.28;55.93
40954;BME280;26686;50.130;8.710;2023-01-28T18:54:34;101475.84;;;3.34;56.50
40954;BME280;26686;50.130;8.710;2023-01-28T18:59:36;101476.97;;;3.27;56.66
40954;BME280;26686;50.130;8.710;2023-01-28T19:04:37;101470.66;;;3.31;56.35
40954;BME280;26686;50.130;8.710;2023-01-28T19:09:39;101483.06;;;3.28;56.34
40954;BME280;26686;50.130;8.710;2023-01-28T19:14:40;101441.69;;;3.03;56.35
40954;BME280;26686;50.130;8.710;2023-01-28T19:19:42;101498.97;;;3.25;56.54
40954;BME280;26686;50.130;8.710;2023-01-28T19:24:43;101485.34;;;3.10;56.83
40954;BME280;26686;50.130;8.710;2023-01-28T19:29:45;101491.31;;;3.17;56.75
40954;BME280;26686;50.130;8.710;2023-01-28T19:34:46;101484.16;;;3.21;57.29
40954;BME280;26686;50.130;8.710;2023-01-28T19:39:48;101485.84;;;3.23;57.11
40954;BME280;26686;50.130;8.710;2023-01-28T19:44:49;101474.63;;;3.16;56.89
40954;BME280;26686;50.130;8.710;2023-01-28T19:49:51;101490.16;;;2.96;57.58
40954;BME280;26686;50.130;8.710;2023-01-28T19:54:52;101479.97;;;3.13;56.90
40954;BME280;26686;50.130;8.710;2023-01-28T19:59:54;101486.78;;;3.21;56.32
40954;BME280;26686;50.130;8.710;2023-01-28T20:04:55;101501.69;;;3.22;55.60
40954;BME280;26686;50.130;8.710;2023-01-28T20:10:01;101501.69;;;3.22;55.76
40954;BME280;26686;50.130;8.710;2023-01-28T20:15:03;101502.59;;;3.21;55.30
40954;BME280;26686;50.130;8.710;2023-01-28T20:20:05;101490.69;;;3.07;55.20
40954;BME280;26686;50.130;8.710;2023-01-28T20:25:07;101504.59;;;3.12;55.49
40954;BME280;26686;50.130;8.710;2023-01-28T20:30:09;101501.91;;;3.14;55.59
40954;BME280;26686;50.130;8.710;2023-01-28T20:35:11;101516.81;;;3.13;56.11
40954;BME280;26686;50.130;8.710;2023-01-28T20:40:13;101499.56;;;3.03;54.11
40954;BME280;26686;50.130;8.710;2023-01-28T20:45:14;101501.31;;;3.04;54.94
40954;BME280;26686;50.130;8.710;2023-01-28T20:50:16;101513.84;;;2.96;54.66
40954;BME280;26686;50.130;8.710;2023-01-28T20:55:18;101509.34;;;2.99;54.83
40954;BME280;26686;50.130;8.710;2023-01-28T21:00:20;101534.53;;;3.08;55.29
40954;BME280;26686;50.130;8.710;2023-01-28T21:05:22;101526.81;;;3.02;55.02
40954;BME280;26686;50.130;8.710;2023-01-28T21:10:23;101508.41;;;3.02;55.12
40954;BME280;26686;50.130;8.710;2023-01-28T21:15:25;101523.81;;;3.14;54.44
40954;BME280;26686;50.130;8.710;2023-01-28T21:20:28;101515.03;;;3.15;55.13
40954;BME280;26686;50.130;8.710;2023-01-28T21:25:31;101517.66;;;3.15;54.74
40954;BME280;26686;50.130;8.710;2023-01-28T21:30:32;101521.91;;;3.19;54.89
40954;BME280;26686;50.130;8.710;2023-01-28T21:35:41;101515.13;;;3.12;54.75
40954;BME280;26686;50.130;8.710;2023-01-28T21:40:43;101510.75;;;3.11;54.72
40954;BME280;26686;50.130;8.710;2023-01-28T21:45:44;101517.13;;;3.03;53.88
40954;BME280;26686;50.130;8.710;2023-01-28T21:50:48;101504.00;;;3.03;54.72
40954;BME280;26686;50.130;8.710;2023-01-28T21:56:08;101502.25;;;3.01;54.37
40954;BME280;26686;50.130;8.710;2023-01-28T22:01:10;101504.97;;;2.98;54.72
40954;BME280;26686;50.130;8.710;2023-01-28T22:06:11;101500.72;;;2.94;55.10
40954;BME280;26686;50.130;8.710;2023-01-28T22:11:13;101501.50;;;2.98;55.14
40954;BME280;26686;50.130;8.710;2023-01-28T22:16:15;101504.00;;;3.03;55.62
40954;BME280;26686;50.130;8.710;2023-01-28T22:21:16;101505.63;;;3.07;55.48
40954;BME280;26686;50.130;8.710;2023-01-28T22:26:18;101503.00;;;3.07;55.05
40954;BME280;26686;50.130;8.710;2023-01-28T22:31:19;101503.09;;;3.04;55.13
40954;BME280;26686;50.130;8.710;2023-01-28T22:36:21;101506.56;;;3.04;54.97
40954;BME280;26686;50.130;8.710;2023-01-28T22:41:23;101504.94;;;3.00;55.25
40954;BME280;26686;50.130;8.710;2023-01-28T22:46:24;101506.56;;;3.04;55.30
40954;BME280;26686;50.130;8.710;2023-01-28T22:51:29;101488.28;;;2.99;55.46
40954;BME280;26686;50.130;8.710;2023-01-28T22:56:31;101497.91;;;3.00;55.56
40954;BME280;26686;50.130;8.710;2023-01-28T23:01:32;101484.06;;;2.94;55.55
40954;BME280;26686;50.130;8.710;2023-01-28T23:06:34;101473.69;;;2.89;55.24
40954;BME280;26686;50.130;8.710;2023-01-28T23:11:37;101480.25;;;3.04;55.54
40954;BME280;26686;50.130;8.710;2023-01-28T23:16:38;101480.00;;;2.51;56.07
40954;BME280;26686;50.130;8.710;2023-01-28T23:21:58;101485.41;;;2.77;55.32
40954;BME280;26686;50.130;8.710;2023-01-28T23:27:18;101477.34;;;2.83;55.02
40954;BME280;26686;50.130;8.710;2023-01-28T23:32:20;101491.50;;;2.79;55.08
40954;BME280;26686;50.130;8.710;2023-01-28T23:37:22;101481.84;;;2.80;54.15
40954;BME280;26686;50.130;8.710;2023-01-28T23:42:24;101474.09;;;2.75;54.45
40954;BME280;26686;50.130;8.710;2023-01-28T23:47:26;101486.25;;;2.79;54.18
40954;BME280;26686;50.130;8.710;2023-01-28T23:52:28;101483.72;;;2.76;54.37
40954;BME280;26686;50.130;8.710;2023-01-28T23:57:29;101475.91;;;2.73;54.18
